createdAt,value
2019-03-30T00:02:37.959Z,16.53
2019-03-30T00:07:44.987Z,14.67
2019-03-30T00:12:51.890Z,14.90
2019-03-30T00:17:58.846Z,13.03
2019-03-30T00:23:05.944Z,13.53
2019-03-30T00:28:12.757Z,12.67
2019-03-30T00:33:19.635Z,11.30
2019-03-30T00:38:26.566Z,12.07
2019-03-30T00:43:34.370Z,11.03
2019-03-30T00:48:41.283Z,12.63
2019-03-30T00:53:48.116Z,12.00
2019-03-30T00:58:55.108Z,12.57
2019-03-30T01:04:02.079Z,12.57
2019-03-30T01:09:09.978Z,11.93
2019-03-30T01:14:17.279Z,12.85
2019-03-30T01:19:24.336Z,12.93
2019-03-30T01:24:31.091Z,13.18
2019-03-30T01:29:38.147Z,12.70
2019-03-30T01:34:45.090Z,11.90
2019-03-30T01:39:52.124Z,12.47
2019-03-30T01:44:59.104Z,12.53
2019-03-30T01:50:17.288Z,12.67
2019-03-30T01:55:16.259Z,13.40
2019-03-30T02:00:23.141Z,13.03
2019-03-30T02:05:30.190Z,12.05
2019-03-30T02:10:45.419Z,12.28
2019-03-30T02:15:52.639Z,12.00
2019-03-30T02:20:59.581Z,11.40
2019-03-30T02:26:06.439Z,11.40
2019-03-30T02:31:13.331Z,11.40
2019-03-30T02:36:20.316Z,11.23
2019-03-30T02:41:27.262Z,10.73
2019-03-30T02:46:34.895Z,12.60
2019-03-30T02:51:41.717Z,12.27
2019-03-30T02:56:48.777Z,11.13
2019-03-30T03:01:56.040Z,11.93
2019-03-30T03:07:03.155Z,10.67
2019-03-30T03:12:10.065Z,11.53
2019-03-30T03:17:17.349Z,11.07
2019-03-30T03:22:24.330Z,11.70
2019-03-30T03:27:32.808Z,12.20
2019-03-30T03:32:39.865Z,12.33
2019-03-30T03:37:46.757Z,11.73
2019-03-30T03:42:54.195Z,13.13
2019-03-30T03:48:01.141Z,11.73
2019-03-30T03:53:08.159Z,12.40
2019-03-30T03:58:17.242Z,12.67
2019-03-30T04:03:26.640Z,12.77
2019-03-30T04:08:33.886Z,12.57
2019-03-30T04:13:42.997Z,12.73
2019-03-30T04:18:50.107Z,12.80
2019-03-30T04:23:56.917Z,12.33
2019-03-30T04:29:04.130Z,13.03
2019-03-30T04:34:11.028Z,11.77
2019-03-30T04:39:18.021Z,12.10
2019-03-30T04:44:24.912Z,11.90
2019-03-30T04:49:31.971Z,11.90
2019-03-30T04:54:38.802Z,11.77
2019-03-30T04:59:45.665Z,11.50
2019-03-30T05:04:52.466Z,11.73
2019-03-30T05:10:00.522Z,12.07
2019-03-30T05:15:09.189Z,11.73
2019-03-30T05:20:16.287Z,11.57
2019-03-30T05:25:23.082Z,12.07
2019-03-30T05:30:30.295Z,12.50
2019-03-30T05:35:37.123Z,12.63
2019-03-30T05:40:44.150Z,13.15
2019-03-30T05:45:50.944Z,13.10
2019-03-30T05:50:57.908Z,12.83
2019-03-30T05:56:05.047Z,11.97
2019-03-30T06:01:12.898Z,12.43
2019-03-30T06:06:19.674Z,12.07
2019-03-30T06:11:26.491Z,11.93
2019-03-30T06:16:33.699Z,11.83
2019-03-30T06:21:40.457Z,12.47
2019-03-30T06:26:47.319Z,12.03
2019-03-30T06:31:54.120Z,10.90
2019-03-30T06:37:00.962Z,12.87
2019-03-30T06:42:07.918Z,11.87
2019-03-30T06:47:14.859Z,12.90
2019-03-30T06:52:24.863Z,13.70
2019-03-30T06:57:31.723Z,12.60
2019-03-30T07:02:39.666Z,13.17
2019-03-30T07:07:49.091Z,12.97
2019-03-30T07:12:57.419Z,13.45
2019-03-30T07:18:05.609Z,11.90
2019-03-30T07:23:12.915Z,11.03
2019-03-30T07:28:20.040Z,11.83
2019-03-30T07:33:26.865Z,11.33
2019-03-30T07:38:33.747Z,11.47
2019-03-30T07:43:40.902Z,10.53
2019-03-30T07:48:47.755Z,11.03
2019-03-30T07:53:54.548Z,11.97
2019-03-30T07:59:01.279Z,10.87
2019-03-30T08:04:08.214Z,11.57
2019-03-30T08:09:15.045Z,11.30
2019-03-30T08:14:21.854Z,11.10
2019-03-30T08:19:28.733Z,9.93
2019-03-30T08:24:35.679Z,10.93
2019-03-30T08:29:42.599Z,10.63
2019-03-30T08:34:49.688Z,10.63
2019-03-30T08:39:56.525Z,11.23
2019-03-30T08:45:03.491Z,11.87
2019-03-30T08:50:11.098Z,11.80
2019-03-30T08:55:18.080Z,10.85
2019-03-30T09:00:44.006Z,11.27
2019-03-30T09:05:51.018Z,11.20
2019-03-30T09:10:57.837Z,10.93
2019-03-30T09:16:04.790Z,10.07
2019-03-30T09:21:11.715Z,11.00
2019-03-30T09:26:18.572Z,11.83
2019-03-30T09:31:25.482Z,9.97
2019-03-30T09:36:33.734Z,10.10
2019-03-30T09:41:40.690Z,10.30
2019-03-30T09:46:47.677Z,10.47
2019-03-30T09:51:54.659Z,10.50
2019-03-30T09:57:01.817Z,9.80
2019-03-30T10:02:08.875Z,10.00
2019-03-30T10:07:16.030Z,9.85
2019-03-30T10:12:22.929Z,10.10
2019-03-30T10:17:29.701Z,10.13
2019-03-30T10:22:36.529Z,9.93
2019-03-30T10:27:43.364Z,10.63
2019-03-30T10:32:50.369Z,10.30
2019-03-30T10:37:57.295Z,9.15
2019-03-30T10:43:04.524Z,9.73
2019-03-30T10:48:11.350Z,8.73
2019-03-30T10:53:18.298Z,8.63
2019-03-30T10:58:25.195Z,8.60
2019-03-30T11:03:32.341Z,9.10
2019-03-30T11:08:39.149Z,9.27
2019-03-30T11:13:46.141Z,8.10
2019-03-30T11:18:53.019Z,8.40
2019-03-30T11:24:00.021Z,7.73
2019-03-30T11:29:07.038Z,8.60
2019-03-30T11:34:14.011Z,8.08
2019-03-30T11:39:21.067Z,8.47
2019-03-30T11:44:27.949Z,8.07
2019-03-30T11:49:34.979Z,8.17
2019-03-30T11:54:42.047Z,8.27
2019-03-30T11:59:48.925Z,8.18
2019-03-30T12:04:56.049Z,7.90
2019-03-30T12:10:03.043Z,8.37
2019-03-30T12:15:10.529Z,8.40
2019-03-30T12:20:17.558Z,7.55
2019-03-30T12:25:34.961Z,7.10
2019-03-30T12:30:33.099Z,8.18
2019-03-30T12:35:39.897Z,7.27
2019-03-30T12:40:46.736Z,7.07
2019-03-30T12:45:53.835Z,7.23
2019-03-30T12:51:00.631Z,8.70
2019-03-30T12:56:08.930Z,8.00
2019-03-30T13:01:16.346Z,7.57
2019-03-30T13:06:23.370Z,8.07
2019-03-30T13:11:30.296Z,8.50
2019-03-30T13:16:37.159Z,8.30
2019-03-30T13:21:52.536Z,8.63
2019-03-30T13:26:53.053Z,9.60
2019-03-30T13:32:00.145Z,8.40
2019-03-30T13:37:17.328Z,9.05
2019-03-30T13:42:24.369Z,9.13
2019-03-30T13:47:31.318Z,9.07
2019-03-30T13:52:38.223Z,9.17
2019-03-30T13:57:45.474Z,9.20
2019-03-30T14:02:52.559Z,10.20
2019-03-30T14:07:59.771Z,8.43
2019-03-30T14:13:06.643Z,9.20
2019-03-30T14:18:13.910Z,9.43
2019-03-30T14:23:20.925Z,8.43
2019-03-30T14:28:28.370Z,9.20
2019-03-30T14:33:35.152Z,8.70
2019-03-30T14:38:41.956Z,9.07
2019-03-30T14:43:48.885Z,8.23
2019-03-30T14:48:55.782Z,8.73
2019-03-30T14:54:02.969Z,8.60
2019-03-30T14:59:10.682Z,8.43
2019-03-30T15:04:20.915Z,10.00
2019-03-30T15:09:28.066Z,8.50
2019-03-30T15:14:35.143Z,9.40
2019-03-30T15:19:42.216Z,9.80
2019-03-30T15:24:49.876Z,10.30
2019-03-30T15:29:56.843Z,10.03
2019-03-30T15:35:03.806Z,10.53
2019-03-30T15:40:11.596Z,9.40
2019-03-30T15:45:18.616Z,8.90
2019-03-30T15:50:25.757Z,9.90
2019-03-30T15:55:33.581Z,9.37
2019-03-30T16:00:40.465Z,9.60
2019-03-30T16:05:47.561Z,9.17
2019-03-30T16:10:54.734Z,8.70
2019-03-30T16:16:01.975Z,8.93
2019-03-30T16:21:08.864Z,8.23
2019-03-30T16:26:15.754Z,8.83
2019-03-30T16:31:23.722Z,9.93
2019-03-30T16:36:30.975Z,10.03
2019-03-30T16:41:37.944Z,9.50
2019-03-30T16:46:44.804Z,9.87
2019-03-30T16:51:51.764Z,10.13
2019-03-30T16:56:58.706Z,14.23
2019-03-30T17:02:06.504Z,12.83
2019-03-30T17:07:14.227Z,11.88
2019-03-30T17:12:21.094Z,13.25
2019-03-30T17:17:28.000Z,10.37
2019-03-30T17:22:34.845Z,13.97
2019-03-30T17:27:41.904Z,18.37
2019-03-30T17:32:49.026Z,13.47
2019-03-30T17:37:56.485Z,12.43
2019-03-30T17:43:03.852Z,13.87
2019-03-30T17:48:10.685Z,16.85
2019-03-30T17:53:17.918Z,19.07
2019-03-30T17:58:24.810Z,18.20
2019-03-30T18:03:31.705Z,17.73
2019-03-30T18:08:38.703Z,19.37
2019-03-30T18:13:45.996Z,22.93
2019-03-30T18:18:52.889Z,22.52
2019-03-30T18:23:59.801Z,19.93
2019-03-30T18:29:37.979Z,21.13
2019-03-30T18:34:46.808Z,23.05
2019-03-30T18:39:53.935Z,24.47
2019-03-30T18:45:01.693Z,27.20
2019-03-30T18:50:09.241Z,28.43
2019-03-30T18:55:19.349Z,24.53
2019-03-30T19:00:29.313Z,25.20
2019-03-30T19:05:36.264Z,24.13
2019-03-30T19:10:43.195Z,24.60
2019-03-30T19:15:50.862Z,25.17
2019-03-30T19:20:57.836Z,28.67
2019-03-30T19:26:04.714Z,28.03
2019-03-30T19:31:12.043Z,26.03
2019-03-30T19:36:18.886Z,25.90
2019-03-30T19:41:25.942Z,26.03
2019-03-30T19:46:32.959Z,26.75
2019-03-30T19:51:40.064Z,25.70
2019-03-30T19:56:47.041Z,27.97
2019-03-30T20:01:54.097Z,27.67
2019-03-30T20:07:01.237Z,28.27
2019-03-30T20:12:08.284Z,28.43
2019-03-30T20:17:16.491Z,26.77
2019-03-30T20:22:23.375Z,28.40
2019-03-30T20:27:30.204Z,27.10
2019-03-30T20:32:37.086Z,27.17
2019-03-30T20:37:44.020Z,27.02
2019-03-30T20:42:50.991Z,27.60
2019-03-30T20:47:58.083Z,27.55
2019-03-30T20:53:06.309Z,28.43
2019-03-30T20:58:13.432Z,26.77
2019-03-30T21:03:20.388Z,27.27
2019-03-30T21:08:27.178Z,25.97
2019-03-30T21:13:34.955Z,26.65
2019-03-30T21:18:42.119Z,26.50
2019-03-30T21:23:49.313Z,24.17
2019-03-30T21:28:56.470Z,25.50
2019-03-30T21:34:03.421Z,27.07
2019-03-30T21:39:10.689Z,26.20
2019-03-30T21:44:22.121Z,29.23
2019-03-30T21:49:26.356Z,27.87
2019-03-30T21:54:33.300Z,29.40
2019-03-30T21:59:40.098Z,29.00
2019-03-30T22:04:47.239Z,29.35
2019-03-30T22:09:54.336Z,28.00
2019-03-30T22:15:01.825Z,31.10
2019-03-30T22:20:08.741Z,30.60
2019-03-30T22:25:15.559Z,30.23
2019-03-30T22:30:25.172Z,30.37
2019-03-30T22:35:31.139Z,31.27
2019-03-30T22:40:41.416Z,30.63
2019-03-30T22:45:47.158Z,31.20
2019-03-30T22:50:53.988Z,32.37
2019-03-30T22:56:00.849Z,32.03
2019-03-30T23:01:12.265Z,32.90
2019-03-30T23:06:20.697Z,33.53
2019-03-30T23:11:28.808Z,33.67
2019-03-30T23:16:37.341Z,34.77
2019-03-30T23:21:44.205Z,34.37
2019-03-30T23:26:51.076Z,33.02
2019-03-30T23:31:58.443Z,34.20
2019-03-30T23:37:06.147Z,35.23
2019-03-30T23:42:13.023Z,33.92
2019-03-30T23:47:20.252Z,34.25
2019-03-30T23:52:27.055Z,35.43
2019-03-30T23:57:33.860Z,35.97
